Airfield :
LOGIN :

Register | Disclaimer

   EN    FR    IT 

 










Legend :    VFR   Marginal VFR   IFR   Intensive IFR   Very Intensive IFR
Visi :
Ceiling :
>= 8 km
>= 3000ft
5 to 8 km
1000 to 3000 ft
1500m to 5 km
500 to 1000 ft
800 to 1500m
200 to 500 ft
< 800m
< 200 ft
Symbols :   Thunderstorms  Fog  Heavy snow  Heavy precipitations  Wind > 20 kt
SIGMETs :     Misc.  Thunderstorms  Icing  Turbulence  Mountain Waves  Volcanic Ashes







- Airport Elevation : 427 ft
- IATA code : KBP


UKBB - Boryspil'

CURRENT METAR :
  • 240700Z 30004MPS 9999 OVC012 19/17 Q1011 R88/CLRD// NOSIG

EXPIRED METARs :
  • 240630Z 31004MPS 9999 FEW009 BKN014 18/17 Q1011 R88/CLRD// NOSIG
  • 240600Z 30003MPS 9999 OVC011 18/17 Q1011 R88/CLRD// NOSIG
  • 240530Z 29003MPS 260V320 9999 OVC010 17/16 Q1011 R88/D NOSIG
  • 240500Z 28003MPS 240V310 9999 OVC010 17/16 Q1011 R36R/CLRD// R36L/290050 NOSIG
  • 240430Z 28002MPS 9999 OVC012 17/16 Q1011 R36R/CLRD// R36L/290050 NOSIG

TAF TAF UKBB
Valid from the 24 at 06:00 until the 25 at 06:00 UTC


240501Z 2406/2506 32005G10MPS 9999 BKN007 BKN012
TEMPO 2406/2410 34006G12MPS 2100 -SHRA BR BKN005 SCT015CB
TEMPO 2410/2418 VRB08G16MPS 1400 TSRA SQ BKN004 SCT018CB
TEMPO 2418/2506 30004MPS 1200 -SHRA BR BKN003 SCT012CB
No reported NOTAMs for that airfield.



MET'MAP, your aeronautical weather chart ! - Copyright ORBIFLY December 2007 - Disclaimer

ORBIFLY MET'MAP TEAM :

Programming & Development : Alexandra Zaïnal
Concept & Development : Baudouin d'Aumeries
Co-Development & Prog : Marc-Olivier Méhu
Technical & hardware support : Manuel Goepfert

Contact : metmap@orbifly.com




SOURCES & CREDITS :

   NOAA